sensor_id;sensor_type;location;lat;lon;timestamp;temperature;humidity
21001;DHT22;10658;50.920;12.238;2024-03-08T00:03:08;-0.80;99.90
21001;DHT22;10658;50.920;12.238;2024-03-08T00:07:10;-0.80;99.90
21001;DHT22;10658;50.920;12.238;2024-03-08T00:11:11;-0.70;99.90
21001;DHT22;10658;50.920;12.238;2024-03-08T00:15:16;-0.70;99.90
21001;DHT22;10658;50.920;12.238;2024-03-08T00:19:17;-0.60;99.90
21001;DHT22;10658;50.920;12.238;2024-03-08T00:23:18;-0.60;99.90
21001;DHT22;10658;50.920;12.238;2024-03-08T00:27:18;-0.50;99.90
21001;DHT22;10658;50.920;12.238;2024-03-08T00:31:23;-0.50;99.90
21001;DHT22;10658;50.920;12.238;2024-03-08T00:35:25;-0.50;99.90
21001;DHT22;10658;50.920;12.238;2024-03-08T00:39:26;-0.50;99.90
21001;DHT22;10658;50.920;12.238;2024-03-08T00:43:27;-0.40;99.90
21001;DHT22;10658;50.920;12.238;2024-03-08T00:47:28;-0.30;99.90
21001;DHT22;10658;50.920;12.238;2024-03-08T00:51:28;-0.30;99.90
21001;DHT22;10658;50.920;12.238;2024-03-08T00:55:29;-0.30;99.90
21001;DHT22;10658;50.920;12.238;2024-03-08T00:59:30;-0.20;99.90
21001;DHT22;10658;50.920;12.238;2024-03-08T01:03:33;-0.20;99.90
21001;DHT22;10658;50.920;12.238;2024-03-08T01:07:36;-0.20;99.90
21001;DHT22;10658;50.920;12.238;2024-03-08T01:11:37;-0.20;99.90
21001;DHT22;10658;50.920;12.238;2024-03-08T01:15:38;-0.30;99.90
21001;DHT22;10658;50.920;12.238;2024-03-08T01:19:42;-0.40;99.90
21001;DHT22;10658;50.920;12.238;2024-03-08T01:23:45;-0.40;99.90
21001;DHT22;10658;50.920;12.238;2024-03-08T01:27:46;-0.50;99.90
21001;DHT22;10658;50.920;12.238;2024-03-08T01:31:46;-0.50;99.90
21001;DHT22;10658;50.920;12.238;2024-03-08T01:35:47;-0.50;99.90
21001;DHT22;10658;50.920;12.238;2024-03-08T01:39:48;-0.50;99.90
21001;DHT22;10658;50.920;12.238;2024-03-08T01:43:49;-0.50;99.90
21001;DHT22;10658;50.920;12.238;2024-03-08T01:47:50;-0.50;99.90
21001;DHT22;10658;50.920;12.238;2024-03-08T01:51:52;-0.60;99.90
21001;DHT22;10658;50.920;12.238;2024-03-08T01:55:56;-0.60;99.90
21001;DHT22;10658;50.920;12.238;2024-03-08T01:59:57;-0.60;99.90
21001;DHT22;10658;50.920;12.238;2024-03-08T02:03:58;-0.60;99.90
21001;DHT22;10658;50.920;12.238;2024-03-08T02:07:58;-0.70;99.90
21001;DHT22;10658;50.920;12.238;2024-03-08T02:11:59;-0.70;99.90
21001;DHT22;10658;50.920;12.238;2024-03-08T02:16:06;-0.80;99.90
21001;DHT22;10658;50.920;12.238;2024-03-08T02:20:09;-0.80;99.90
21001;DHT22;10658;50.920;12.238;2024-03-08T02:24:11;-0.80;99.90
21001;DHT22;10658;50.920;12.238;2024-03-08T02:28:12;-0.70;99.90
21001;DHT22;10658;50.920;12.238;2024-03-08T02:32:13;-0.70;99.90
21001;DHT22;10658;50.920;12.238;2024-03-08T02:36:14;-0.60;99.90
21001;DHT22;10658;50.920;12.238;2024-03-08T02:40:14;-0.60;99.90
21001;DHT22;10658;50.920;12.238;2024-03-08T02:44:15;-0.60;99.90
21001;DHT22;10658;50.920;12.238;2024-03-08T02:48:16;-0.60;99.90
21001;DHT22;10658;50.920;12.238;2024-03-08T02:52:16;-0.60;99.90
21001;DHT22;10658;50.920;12.238;2024-03-08T02:56:17;-0.60;99.90
21001;DHT22;10658;50.920;12.238;2024-03-08T03:00:18;-0.70;99.90
21001;DHT22;10658;50.920;12.238;2024-03-08T03:04:19;-0.70;99.90
21001;DHT22;10658;50.920;12.238;2024-03-08T03:08:20;-0.80;99.90
21001;DHT22;10658;50.920;12.238;2024-03-08T03:12:21;-0.90;99.90
21001;DHT22;10658;50.920;12.238;2024-03-08T03:16:21;-1.00;99.90
21001;DHT22;10658;50.920;12.238;2024-03-08T03:20:23;-1.10;99.90
21001;DHT22;10658;50.920;12.238;2024-03-08T03:24:26;-1.20;99.90
21001;DHT22;10658;50.920;12.238;2024-03-08T03:28:30;-1.40;99.90
21001;DHT22;10658;50.920;12.238;2024-03-08T03:32:31;-1.60;99.90
21001;DHT22;10658;50.920;12.238;2024-03-08T03:36:33;-1.60;99.90
21001;DHT22;10658;50.920;12.238;2024-03-08T03:40:37;-1.60;99.90
21001;DHT22;10658;50.920;12.238;2024-03-08T03:44:38;-1.60;99.90
21001;DHT22;10658;50.920;12.238;2024-03-08T03:48:38;-1.70;99.90
21001;DHT22;10658;50.920;12.238;2024-03-08T03:52:39;-1.80;99.90
21001;DHT22;10658;50.920;12.238;2024-03-08T03:56:40;-1.80;99.90
21001;DHT22;10658;50.920;12.238;2024-03-08T04:00:42;-1.80;99.90
21001;DHT22;10658;50.920;12.238;2024-03-08T04:04:42;-2.00;99.90
21001;DHT22;10658;50.920;12.238;2024-03-08T04:08:44;-2.00;99.90
21001;DHT22;10658;50.920;12.238;2024-03-08T04:12:45;-2.00;99.90
21001;DHT22;10658;50.920;12.238;2024-03-08T04:16:46;-2.00;99.90
21001;DHT22;10658;50.920;12.238;2024-03-08T04:20:49;-2.10;99.90
21001;DHT22;10658;50.920;12.238;2024-03-08T04:24:49;-2.10;99.90
21001;DHT22;10658;50.920;12.238;2024-03-08T04:28:51;-2.20;99.90
21001;DHT22;10658;50.920;12.238;2024-03-08T04:32:52;-2.20;99.90
21001;DHT22;10658;50.920;12.238;2024-03-08T04:36:53;-2.20;99.90
21001;DHT22;10658;50.920;12.238;2024-03-08T04:40:54;-2.20;99.90
21001;DHT22;10658;50.920;12.238;2024-03-08T04:44:57;-2.20;99.90
21001;DHT22;10658;50.920;12.238;2024-03-08T04:48:58;-2.20;99.90
21001;DHT22;10658;50.920;12.238;2024-03-08T04:52:59;-2.20;99.90
21001;DHT22;10658;50.920;12.238;2024-03-08T04:57:00;-2.20;99.90
21001;DHT22;10658;50.920;12.238;2024-03-08T05:01:01;-2.30;99.90
21001;DHT22;10658;50.920;12.238;2024-03-08T05:05:02;-2.30;99.90
21001;DHT22;10658;50.920;12.238;2024-03-08T05:09:03;-2.40;99.90
21001;DHT22;10658;50.920;12.238;2024-03-08T05:13:13;-2.30;99.90
21001;DHT22;10658;50.920;12.238;2024-03-08T05:17:14;-2.40;99.90
21001;DHT22;10658;50.920;12.238;2024-03-08T05:21:15;-2.40;99.90
21001;DHT22;10658;50.920;12.238;2024-03-08T05:25:17;-2.40;99.90
21001;DHT22;10658;50.920;12.238;2024-03-08T05:29:18;-2.40;99.90
21001;DHT22;10658;50.920;12.238;2024-03-08T05:33:19;-2.40;99.90
21001;DHT22;10658;50.920;12.238;2024-03-08T05:37:19;-2.40;99.90
21001;DHT22;10658;50.920;12.238;2024-03-08T05:41:21;-2.30;99.90
21001;DHT22;10658;50.920;12.238;2024-03-08T05:45:22;-2.30;99.90
21001;DHT22;10658;50.920;12.238;2024-03-08T05:49:22;-2.40;99.90
21001;DHT22;10658;50.920;12.238;2024-03-08T05:53:23;-2.40;99.90
21001;DHT22;10658;50.920;12.238;2024-03-08T05:57:24;-2.40;99.90
21001;DHT22;10658;50.920;12.238;2024-03-08T06:01:25;-2.30;99.90
21001;DHT22;10658;50.920;12.238;2024-03-08T06:05:26;-2.40;99.90
21001;DHT22;10658;50.920;12.238;2024-03-08T06:09:27;-2.30;99.90
21001;DHT22;10658;50.920;12.238;2024-03-08T06:13:27;-2.30;99.90
21001;DHT22;10658;50.920;12.238;2024-03-08T06:17:31;-2.20;99.90
21001;DHT22;10658;50.920;12.238;2024-03-08T06:21:32;-2.10;99.90
21001;DHT22;10658;50.920;12.238;2024-03-08T06:25:33;-2.00;99.90
21001;DHT22;10658;50.920;12.238;2024-03-08T06:29:35;-1.90;99.90
21001;DHT22;10658;50.920;12.238;2024-03-08T06:33:36;-1.70;99.90
21001;DHT22;10658;50.920;12.238;2024-03-08T06:37:37;-1.60;99.90
21001;DHT22;10658;50.920;12.238;2024-03-08T06:41:39;-1.40;99.90
21001;DHT22;10658;50.920;12.238;2024-03-08T06:45:39;-1.20;99.90
21001;DHT22;10658;50.920;12.238;2024-03-08T06:49:41;-0.90;99.90
21001;DHT22;10658;50.920;12.238;2024-03-08T06:53:42;-0.50;99.90
21001;DHT22;10658;50.920;12.238;2024-03-08T06:57:43;-0.10;99.90
21001;DHT22;10658;50.920;12.238;2024-03-08T07:01:46;0.10;99.90
21001;DHT22;10658;50.920;12.238;2024-03-08T07:05:47;0.40;99.90
21001;DHT22;10658;50.920;12.238;2024-03-08T07:09:48;0.60;99.90
21001;DHT22;10658;50.920;12.238;2024-03-08T07:13:49;0.90;99.90
21001;DHT22;10658;50.920;12.238;2024-03-08T07:17:50;1.10;99.90
21001;DHT22;10658;50.920;12.238;2024-03-08T07:21:53;1.40;99.90
21001;DHT22;10658;50.920;12.238;2024-03-08T07:25:55;1.60;99.90
21001;DHT22;10658;50.920;12.238;2024-03-08T07:29:57;2.00;99.90
21001;DHT22;10658;50.920;12.238;2024-03-08T07:33:58;2.30;99.90
21001;DHT22;10658;50.920;12.238;2024-03-08T07:37:59;2.60;99.90
21001;DHT22;10658;50.920;12.238;2024-03-08T07:42:00;2.70;99.90
21001;DHT22;10658;50.920;12.238;2024-03-08T07:46:01;2.90;99.90
21001;DHT22;10658;50.920;12.238;2024-03-08T07:50:02;3.10;99.90
21001;DHT22;10658;50.920;12.238;2024-03-08T07:54:03;3.30;99.90
21001;DHT22;10658;50.920;12.238;2024-03-08T07:58:04;3.50;99.90
21001;DHT22;10658;50.920;12.238;2024-03-08T08:02:08;3.60;99.90
21001;DHT22;10658;50.920;12.238;2024-03-08T08:06:09;3.80;99.90
21001;DHT22;10658;50.920;12.238;2024-03-08T08:10:11;3.90;99.90
21001;DHT22;10658;50.920;12.238;2024-03-08T08:14:19;4.10;99.90
21001;DHT22;10658;50.920;12.238;2024-03-08T08:18:21;4.20;99.90
21001;DHT22;10658;50.920;12.238;2024-03-08T08:22:25;4.40;99.90
21001;DHT22;10658;50.920;12.238;2024-03-08T08:26:26;4.30;99.90
21001;DHT22;10658;50.920;12.238;2024-03-08T08:30:27;4.40;99.90
21001;DHT22;10658;50.920;12.238;2024-03-08T08:34:28;4.50;99.90
21001;DHT22;10658;50.920;12.238;2024-03-08T08:38:29;4.60;99.90
21001;DHT22;10658;50.920;12.238;2024-03-08T08:42:30;4.70;99.90
21001;DHT22;10658;50.920;12.238;2024-03-08T08:46:30;4.80;99.90
21001;DHT22;10658;50.920;12.238;2024-03-08T08:55:10;5.30;99.90
21001;DHT22;10658;50.920;12.238;2024-03-08T08:59:39;5.50;99.90
21001;DHT22;10658;50.920;12.238;2024-03-08T09:03:49;5.60;99.90
21001;DHT22;10658;50.920;12.238;2024-03-08T09:08:05;5.60;99.90
21001;DHT22;10658;50.920;12.238;2024-03-08T09:12:16;5.80;99.90
21001;DHT22;10658;50.920;12.238;2024-03-08T09:16:27;6.00;99.90
21001;DHT22;10658;50.920;12.238;2024-03-08T09:20:50;6.20;99.90
21001;DHT22;10658;50.920;12.238;2024-03-08T09:29:44;6.80;99.90
21001;DHT22;10658;50.920;12.238;2024-03-08T09:34:00;6.80;99.90
21001;DHT22;10658;50.920;12.238;2024-03-08T09:38:38;7.00;99.90
21001;DHT22;10658;50.920;12.238;2024-03-08T09:42:56;7.20;99.90
21001;DHT22;10658;50.920;12.238;2024-03-08T09:47:05;7.30;99.90
21001;DHT22;10658;50.920;12.238;2024-03-08T09:51:12;7.40;99.90
21001;DHT22;10658;50.920;12.238;2024-03-08T09:55:40;7.40;99.90
21001;DHT22;10658;50.920;12.238;2024-03-08T09:59:48;7.50;99.90
21001;DHT22;10658;50.920;12.238;2024-03-08T10:03:50;7.60;99.90
21001;DHT22;10658;50.920;12.238;2024-03-08T10:07:56;7.90;99.90
21001;DHT22;10658;50.920;12.238;2024-03-08T10:12:02;8.20;99.90
21001;DHT22;10658;50.920;12.238;2024-03-08T10:16:14;8.30;99.90
21001;DHT22;10658;50.920;12.238;2024-03-08T10:20:25;8.30;99.90
21001;DHT22;10658;50.920;12.238;2024-03-08T10:24:31;8.30;99.90
21001;DHT22;10658;50.920;12.238;2024-03-08T10:29:00;8.50;99.90
21001;DHT22;10658;50.920;12.238;2024-03-08T10:33:10;8.60;99.90
21001;DHT22;10658;50.920;12.238;2024-03-08T10:37:21;8.60;99.90
21001;DHT22;10658;50.920;12.238;2024-03-08T10:41:48;8.80;99.90
21001;DHT22;10658;50.920;12.238;2024-03-08T10:46:01;8.80;99.90
21001;DHT22;10658;50.920;12.238;2024-03-08T10:50:19;8.90;99.90
21001;DHT22;10658;50.920;12.238;2024-03-08T10:54:34;9.30;99.90
21001;DHT22;10658;50.920;12.238;2024-03-08T10:58:41;9.10;99.90
21001;DHT22;10658;50.920;12.238;2024-03-08T11:02:51;9.20;99.90
21001;DHT22;10658;50.920;12.238;2024-03-08T11:07:10;9.10;99.90
21001;DHT22;10658;50.920;12.238;2024-03-08T11:11:43;9.20;99.90
21001;DHT22;10658;50.920;12.238;2024-03-08T11:25:42;9.40;99.90
21001;DHT22;10658;50.920;12.238;2024-03-08T11:30:08;9.20;99.90
21001;DHT22;10658;50.920;12.238;2024-03-08T11:34:48;9.20;99.90
21001;DHT22;10658;50.920;12.238;2024-03-08T11:44:20;9.50;99.90
21001;DHT22;10658;50.920;12.238;2024-03-08T11:48:36;9.50;99.90
21001;DHT22;10658;50.920;12.238;2024-03-08T11:52:51;9.50;99.90
21001;DHT22;10658;50.920;12.238;2024-03-08T12:02:03;9.70;99.90
21001;DHT22;10658;50.920;12.238;2024-03-08T12:06:45;9.70;99.90
21001;DHT22;10658;50.920;12.238;2024-03-08T12:11:23;9.70;99.90
21001;DHT22;10658;50.920;12.238;2024-03-08T12:16:09;9.80;99.90
21001;DHT22;10658;50.920;12.238;2024-03-08T12:20:43;10.00;99.90
21001;DHT22;10658;50.920;12.238;2024-03-08T12:25:21;10.00;99.90
21001;DHT22;10658;50.920;12.238;2024-03-08T12:29:32;10.10;99.90
21001;DHT22;10658;50.920;12.238;2024-03-08T12:34:09;10.20;99.90
21001;DHT22;10658;50.920;12.238;2024-03-08T12:38:19;10.30;99.90
21001;DHT22;10658;50.920;12.238;2024-03-08T12:42:36;10.10;99.90
21001;DHT22;10658;50.920;12.238;2024-03-08T12:47:05;10.10;99.90
21001;DHT22;10658;50.920;12.238;2024-03-08T12:51:45;10.10;99.90
21001;DHT22;10658;50.920;12.238;2024-03-08T12:55:56;10.10;99.90
21001;DHT22;10658;50.920;12.238;2024-03-08T13:00:15;9.80;99.90
21001;DHT22;10658;50.920;12.238;2024-03-08T13:04:36;9.60;99.90
21001;DHT22;10658;50.920;12.238;2024-03-08T13:08:58;9.50;99.90
21001;DHT22;10658;50.920;12.238;2024-03-08T13:13:19;9.30;99.90
21001;DHT22;10658;50.920;12.238;2024-03-08T13:17:38;9.30;99.90
21001;DHT22;10658;50.920;12.238;2024-03-08T13:21:57;9.30;99.90
21001;DHT22;10658;50.920;12.238;2024-03-08T13:26:49;9.40;99.90
21001;DHT22;10658;50.920;12.238;2024-03-08T13:30:58;9.30;99.90
21001;DHT22;10658;50.920;12.238;2024-03-08T13:40:15;9.30;99.90
21001;DHT22;10658;50.920;12.238;2024-03-08T13:44:26;9.30;99.90
21001;DHT22;10658;50.920;12.238;2024-03-08T13:48:57;9.40;99.90
21001;DHT22;10658;50.920;12.238;2024-03-08T13:53:13;9.40;99.90
21001;DHT22;10658;50.920;12.238;2024-03-08T14:02:30;9.40;99.90
21001;DHT22;10658;50.920;12.238;2024-03-08T14:06:51;9.40;99.90
21001;DHT22;10658;50.920;12.238;2024-03-08T14:11:51;9.40;99.90
21001;DHT22;10658;50.920;12.238;2024-03-08T14:16:16;9.30;99.90
21001;DHT22;10658;50.920;12.238;2024-03-08T14:20:55;9.40;99.90
21001;DHT22;10658;50.920;12.238;2024-03-08T14:25:07;9.40;99.90
21001;DHT22;10658;50.920;12.238;2024-03-08T14:29:26;9.40;99.90
21001;DHT22;10658;50.920;12.238;2024-03-08T14:34:10;9.40;99.90
21001;DHT22;10658;50.920;12.238;2024-03-08T14:38:52;9.40;99.90
21001;DHT22;10658;50.920;12.238;2024-03-08T14:43:28;9.40;99.90
21001;DHT22;10658;50.920;12.238;2024-03-08T14:47:46;9.40;99.90
21001;DHT22;10658;50.920;12.238;2024-03-08T14:52:05;9.40;99.90
21001;DHT22;10658;50.920;12.238;2024-03-08T14:56:34;9.50;99.90
21001;DHT22;10658;50.920;12.238;2024-03-08T15:00:39;9.50;99.90
21001;DHT22;10658;50.920;12.238;2024-03-08T15:05:17;9.40;99.90
21001;DHT22;10658;50.920;12.238;2024-03-08T15:09:46;9.40;99.90
21001;DHT22;10658;50.920;12.238;2024-03-08T15:14:01;9.30;99.90
21001;DHT22;10658;50.920;12.238;2024-03-08T15:18:09;9.20;99.90
21001;DHT22;10658;50.920;12.238;2024-03-08T15:22:48;9.20;99.90
21001;DHT22;10658;50.920;12.238;2024-03-08T15:27:09;9.20;99.90
21001;DHT22;10658;50.920;12.238;2024-03-08T15:31:45;9.10;99.90
21001;DHT22;10658;50.920;12.238;2024-03-08T15:35:50;9.00;99.90
21001;DHT22;10658;50.920;12.238;2024-03-08T15:40:16;8.90;99.90
21001;DHT22;10658;50.920;12.238;2024-03-08T15:50:15;8.60;99.90
21001;DHT22;10658;50.920;12.238;2024-03-08T15:54:25;8.50;99.90
21001;DHT22;10658;50.920;12.238;2024-03-08T15:58:59;8.40;99.90
21001;DHT22;10658;50.920;12.238;2024-03-08T16:03:15;8.30;99.90
21001;DHT22;10658;50.920;12.238;2024-03-08T16:07:42;8.30;99.90
21001;DHT22;10658;50.920;12.238;2024-03-08T16:12:10;8.20;99.90
21001;DHT22;10658;50.920;12.238;2024-03-08T16:16:27;8.10;99.90
21001;DHT22;10658;50.920;12.238;2024-03-08T16:21:33;8.00;99.90
21001;DHT22;10658;50.920;12.238;2024-03-08T16:30:48;7.80;99.90
21001;DHT22;10658;50.920;12.238;2024-03-08T16:35:20;7.70;99.90
21001;DHT22;10658;50.920;12.238;2024-03-08T16:39:49;7.50;99.90
21001;DHT22;10658;50.920;12.238;2024-03-08T16:44:10;7.40;99.90
21001;DHT22;10658;50.920;12.238;2024-03-08T16:48:26;7.30;99.90
21001;DHT22;10658;50.920;12.238;2024-03-08T16:53:06;7.20;99.90
21001;DHT22;10658;50.920;12.238;2024-03-08T16:57:23;7.10;99.90
21001;DHT22;10658;50.920;12.238;2024-03-08T17:01:26;7.00;99.90
21001;DHT22;10658;50.920;12.238;2024-03-08T17:05:30;6.80;99.90
21001;DHT22;10658;50.920;12.238;2024-03-08T17:09:31;6.70;99.90
21001;DHT22;10658;50.920;12.238;2024-03-08T17:13:33;6.60;99.90
21001;DHT22;10658;50.920;12.238;2024-03-08T17:17:33;6.50;99.90
21001;DHT22;10658;50.920;12.238;2024-03-08T17:21:34;6.30;99.90
21001;DHT22;10658;50.920;12.238;2024-03-08T17:25:35;6.20;99.90
21001;DHT22;10658;50.920;12.238;2024-03-08T17:29:38;6.10;99.90
21001;DHT22;10658;50.920;12.238;2024-03-08T17:33:39;6.00;99.90
21001;DHT22;10658;50.920;12.238;2024-03-08T17:37:42;5.90;99.90
21001;DHT22;10658;50.920;12.238;2024-03-08T17:41:46;5.90;99.90
21001;DHT22;10658;50.920;12.238;2024-03-08T17:45:49;5.70;99.90
21001;DHT22;10658;50.920;12.238;2024-03-08T17:49:50;5.70;99.90
21001;DHT22;10658;50.920;12.238;2024-03-08T17:53:51;5.80;99.90
21001;DHT22;10658;50.920;12.238;2024-03-08T17:57:52;5.80;99.90
21001;DHT22;10658;50.920;12.238;2024-03-08T18:01:53;5.70;99.90
21001;DHT22;10658;50.920;12.238;2024-03-08T18:05:55;5.60;99.90
21001;DHT22;10658;50.920;12.238;2024-03-08T18:09:56;5.40;99.90
21001;DHT22;10658;50.920;12.238;2024-03-08T18:13:57;5.20;99.90
21001;DHT22;10658;50.920;12.238;2024-03-08T18:17:59;5.10;99.90
21001;DHT22;10658;50.920;12.238;2024-03-08T18:22:00;5.00;99.90
21001;DHT22;10658;50.920;12.238;2024-03-08T18:26:02;4.90;99.90
21001;DHT22;10658;50.920;12.238;2024-03-08T18:30:04;4.90;99.90
21001;DHT22;10658;50.920;12.238;2024-03-08T18:34:05;4.70;99.90
21001;DHT22;10658;50.920;12.238;2024-03-08T18:38:06;4.70;99.90
21001;DHT22;10658;50.920;12.238;2024-03-08T18:42:10;4.50;99.90
21001;DHT22;10658;50.920;12.238;2024-03-08T18:46:13;4.60;99.90
21001;DHT22;10658;50.920;12.238;2024-03-08T18:50:18;4.50;99.90
21001;DHT22;10658;50.920;12.238;2024-03-08T18:54:20;4.30;99.90
21001;DHT22;10658;50.920;12.238;2024-03-08T18:58:21;4.40;99.90
21001;DHT22;10658;50.920;12.238;2024-03-08T19:02:22;4.30;99.90
21001;DHT22;10658;50.920;12.238;2024-03-08T19:06:23;4.30;99.90
21001;DHT22;10658;50.920;12.238;2024-03-08T19:10:28;4.20;99.90
21001;DHT22;10658;50.920;12.238;2024-03-08T19:14:30;4.00;99.90
21001;DHT22;10658;50.920;12.238;2024-03-08T19:18:33;3.80;99.90
21001;DHT22;10658;50.920;12.238;2024-03-08T19:22:35;3.80;99.90
21001;DHT22;10658;50.920;12.238;2024-03-08T19:26:36;3.80;99.90
21001;DHT22;10658;50.920;12.238;2024-03-08T19:30:37;3.70;99.90
21001;DHT22;10658;50.920;12.238;2024-03-08T19:34:42;3.90;99.90
21001;DHT22;10658;50.920;12.238;2024-03-08T19:38:44;3.90;99.90
21001;DHT22;10658;50.920;12.238;2024-03-08T19:42:51;3.80;99.90
21001;DHT22;10658;50.920;12.238;2024-03-08T19:46:52;3.90;99.90
21001;DHT22;10658;50.920;12.238;2024-03-08T19:50:54;3.90;99.90
21001;DHT22;10658;50.920;12.238;2024-03-08T19:54:56;3.90;99.90
21001;DHT22;10658;50.920;12.238;2024-03-08T20:03:05;3.70;99.90
21001;DHT22;10658;50.920;12.238;2024-03-08T20:07:08;3.80;99.90
21001;DHT22;10658;50.920;12.238;2024-03-08T20:11:09;3.80;99.90
21001;DHT22;10658;50.920;12.238;2024-03-08T20:15:12;3.80;99.90
21001;DHT22;10658;50.920;12.238;2024-03-08T20:19:14;3.70;99.90
21001;DHT22;10658;50.920;12.238;2024-03-08T20:23:14;3.60;99.90
21001;DHT22;10658;50.920;12.238;2024-03-08T20:27:16;3.60;99.90
21001;DHT22;10658;50.920;12.238;2024-03-08T20:31:18;3.60;99.90
21001;DHT22;10658;50.920;12.238;2024-03-08T20:35:24;3.60;99.90
21001;DHT22;10658;50.920;12.238;2024-03-08T20:39:25;3.60;99.90
21001;DHT22;10658;50.920;12.238;2024-03-08T20:43:29;3.60;99.90
21001;DHT22;10658;50.920;12.238;2024-03-08T20:47:30;3.60;99.90
21001;DHT22;10658;50.920;12.238;2024-03-08T20:51:36;3.60;99.90
21001;DHT22;10658;50.920;12.238;2024-03-08T20:55:41;3.50;99.90
21001;DHT22;10658;50.920;12.238;2024-03-08T20:59:44;3.50;99.90
21001;DHT22;10658;50.920;12.238;2024-03-08T21:03:45;3.50;99.90
21001;DHT22;10658;50.920;12.238;2024-03-08T21:07:47;3.50;99.90
21001;DHT22;10658;50.920;12.238;2024-03-08T21:11:47;3.40;99.90
21001;DHT22;10658;50.920;12.238;2024-03-08T21:15:48;3.50;99.90
21001;DHT22;10658;50.920;12.238;2024-03-08T21:19:49;3.40;99.90
21001;DHT22;10658;50.920;12.238;2024-03-08T21:23:50;3.30;99.90
21001;DHT22;10658;50.920;12.238;2024-03-08T21:27:51;3.20;99.90
21001;DHT22;10658;50.920;12.238;2024-03-08T21:31:52;3.10;99.90
21001;DHT22;10658;50.920;12.238;2024-03-08T21:35:52;3.00;99.90
21001;DHT22;10658;50.920;12.238;2024-03-08T21:39:54;3.00;99.90
21001;DHT22;10658;50.920;12.238;2024-03-08T21:43:59;3.00;99.90
21001;DHT22;10658;50.920;12.238;2024-03-08T21:48:01;3.00;99.90
21001;DHT22;10658;50.920;12.238;2024-03-08T21:52:02;3.00;99.90
21001;DHT22;10658;50.920;12.238;2024-03-08T21:56:05;2.90;99.90
21001;DHT22;10658;50.920;12.238;2024-03-08T22:00:08;2.90;99.90
21001;DHT22;10658;50.920;12.238;2024-03-08T22:04:15;2.70;99.90
21001;DHT22;10658;50.920;12.238;2024-03-08T22:08:16;2.60;99.90
21001;DHT22;10658;50.920;12.238;2024-03-08T22:12:17;2.60;99.90
21001;DHT22;10658;50.920;12.238;2024-03-08T22:16:19;2.60;99.90
21001;DHT22;10658;50.920;12.238;2024-03-08T22:20:24;2.70;99.90
21001;DHT22;10658;50.920;12.238;2024-03-08T22:24:32;2.60;99.90
21001;DHT22;10658;50.920;12.238;2024-03-08T22:28:34;2.60;99.90
21001;DHT22;10658;50.920;12.238;2024-03-08T22:32:35;2.60;99.90
21001;DHT22;10658;50.920;12.238;2024-03-08T22:36:36;2.50;99.90
21001;DHT22;10658;50.920;12.238;2024-03-08T22:40:37;2.50;99.90
21001;DHT22;10658;50.920;12.238;2024-03-08T22:44:38;2.50;99.90
21001;DHT22;10658;50.920;12.238;2024-03-08T22:48:39;2.40;99.90
21001;DHT22;10658;50.920;12.238;2024-03-08T22:52:42;2.40;99.90
21001;DHT22;10658;50.920;12.238;2024-03-08T22:56:45;2.40;99.90
21001;DHT22;10658;50.920;12.238;2024-03-08T23:00:47;2.30;99.90
21001;DHT22;10658;50.920;12.238;2024-03-08T23:04:57;2.30;99.90
21001;DHT22;10658;50.920;12.238;2024-03-08T23:08:59;2.20;99.90
21001;DHT22;10658;50.920;12.238;2024-03-08T23:12:59;2.20;99.90
21001;DHT22;10658;50.920;12.238;2024-03-08T23:17:00;2.00;99.90
21001;DHT22;10658;50.920;12.238;2024-03-08T23:21:01;2.00;99.90
21001;DHT22;10658;50.920;12.238;2024-03-08T23:25:03;2.00;99.90
21001;DHT22;10658;50.920;12.238;2024-03-08T23:29:09;1.90;99.90
21001;DHT22;10658;50.920;12.238;2024-03-08T23:33:12;1.90;99.90
21001;DHT22;10658;50.920;12.238;2024-03-08T23:37:13;1.80;99.90
21001;DHT22;10658;50.920;12.238;2024-03-08T23:41:14;1.80;99.90
21001;DHT22;10658;50.920;12.238;2024-03-08T23:45:18;1.70;99.90
21001;DHT22;10658;50.920;12.238;2024-03-08T23:49:20;1.70;99.90
21001;DHT22;10658;50.920;12.238;2024-03-08T23:53:21;1.50;99.90
21001;DHT22;10658;50.920;12.238;2024-03-08T23:57:22;1.50;99.90
